createdAt,value
2022-10-11T00:00:42.951Z,9.20
2022-10-11T00:03:09.498Z,9.02
2022-10-11T00:05:36.581Z,10.63
2022-10-11T00:08:05.473Z,8.73
2022-10-11T00:10:33.273Z,8.10
2022-10-11T00:12:59.727Z,8.65
2022-10-11T00:15:26.138Z,7.95
2022-10-11T00:17:52.580Z,7.80
2022-10-11T00:20:19.158Z,8.20
2022-10-11T00:22:45.741Z,8.50
2022-10-11T00:25:12.807Z,9.45
2022-10-11T00:27:39.174Z,9.30
2022-10-11T00:30:07.038Z,9.77
2022-10-11T00:32:34.877Z,9.50
2022-10-11T00:35:06.074Z,8.07
2022-10-11T00:37:34.235Z,8.27
2022-10-11T00:40:01.582Z,8.73
2022-10-11T00:42:28.050Z,8.45
2022-10-11T00:45:26.395Z,9.45
2022-10-11T00:48:04.469Z,8.85
2022-10-11T00:50:34.452Z,9.30
2022-10-11T00:53:05.667Z,8.75
2022-10-11T00:55:38.570Z,9.18
2022-10-11T00:58:06.239Z,8.68
2022-10-11T01:00:32.785Z,9.18
2022-10-11T01:03:00.755Z,9.02
2022-10-11T01:05:29.907Z,10.02
2022-10-11T01:07:58.793Z,10.98
2022-10-11T01:10:26.019Z,10.27
2022-10-11T01:13:14.452Z,9.90
2022-10-11T01:16:08.639Z,9.68
2022-10-11T01:18:46.485Z,10.25
2022-10-11T01:21:24.659Z,10.68
2022-10-11T01:24:01.084Z,10.23
2022-10-11T01:27:20.582Z,12.45
2022-10-11T01:30:04.823Z,12.27
2022-10-11T01:32:51.227Z,12.48
2022-10-11T01:35:28.233Z,13.35
2022-10-11T01:38:14.384Z,11.18
2022-10-11T01:41:05.963Z,11.07
2022-10-11T01:43:34.524Z,11.73
2022-10-11T01:46:03.005Z,13.65
2022-10-11T01:48:29.769Z,12.27
2022-10-11T01:50:58.515Z,13.18
2022-10-11T01:53:48.393Z,11.80
2022-10-11T01:56:27.997Z,13.65
2022-10-11T01:59:29.423Z,13.02
2022-10-11T02:04:49.375Z,11.77
2022-10-11T02:07:42.937Z,12.23
2022-10-11T02:10:30.319Z,14.05
2022-10-11T02:13:09.430Z,13.85
2022-10-11T02:15:40.009Z,13.80
2022-10-11T02:18:14.766Z,13.00
2022-10-11T02:20:44.038Z,13.93
2022-10-11T02:23:20.414Z,14.27
2022-10-11T02:25:47.990Z,13.32
2022-10-11T02:28:20.546Z,13.10
2022-10-11T02:30:49.632Z,13.55
2022-10-11T02:33:21.717Z,12.82
2022-10-11T02:35:56.060Z,12.93
2022-10-11T02:38:26.077Z,14.27
2022-10-11T02:41:10.737Z,13.93
2022-10-11T02:43:41.481Z,15.18
2022-10-11T02:46:09.732Z,15.23
2022-10-11T02:48:37.313Z,16.77
2022-10-11T02:51:04.780Z,16.88
2022-10-11T02:53:31.735Z,16.40
2022-10-11T02:55:58.190Z,17.95
2022-10-11T02:58:25.955Z,17.17
2022-10-11T03:00:52.338Z,16.52
2022-10-11T03:03:18.731Z,17.13
2022-10-11T03:05:45.102Z,17.55
2022-10-11T03:08:14.134Z,18.35
2022-10-11T03:10:41.239Z,19.73
2022-10-11T03:13:07.862Z,19.80
2022-10-11T03:15:34.871Z,20.95
2022-10-11T03:18:01.247Z,19.30
2022-10-11T03:20:27.625Z,20.50
2022-10-11T03:22:53.935Z,19.10
2022-10-11T03:25:20.320Z,18.15
2022-10-11T03:27:46.684Z,16.17
2022-10-11T03:30:17.326Z,16.63
2022-10-11T03:32:44.744Z,15.13
2022-10-11T03:35:11.122Z,13.38
2022-10-11T03:37:37.729Z,13.50
2022-10-11T03:40:06.201Z,12.23
2022-10-11T03:42:32.525Z,13.82
2022-10-11T03:44:59.782Z,12.45
2022-10-11T03:47:26.141Z,10.00
2022-10-11T03:49:52.896Z,10.68
2022-10-11T03:52:19.257Z,9.82
2022-10-11T03:54:48.274Z,9.80
2022-10-11T03:57:14.913Z,8.13
2022-10-11T03:59:41.280Z,8.70
2022-10-11T04:02:07.876Z,7.95
2022-10-11T04:04:35.372Z,10.38
2022-10-11T04:07:01.680Z,7.72
2022-10-11T04:09:28.389Z,7.57
2022-10-11T04:11:54.719Z,7.50
2022-10-11T04:14:21.075Z,6.97
2022-10-11T04:16:47.418Z,6.00
2022-10-11T04:19:13.840Z,6.97
2022-10-11T04:21:40.131Z,5.05
2022-10-11T04:24:06.617Z,6.03
2022-10-11T04:26:33.073Z,6.18
2022-10-11T04:28:59.448Z,6.30
2022-10-11T04:31:25.932Z,4.78
2022-10-11T04:33:52.313Z,5.35
2022-10-11T04:36:18.704Z,5.10
2022-10-11T04:38:44.991Z,3.97
2022-10-11T04:41:13.549Z,5.63
2022-10-11T04:43:39.939Z,4.05
2022-10-11T04:46:07.047Z,4.20
2022-10-11T04:48:33.611Z,4.30
2022-10-11T04:50:59.957Z,4.60
2022-10-11T04:53:26.364Z,4.80
2022-10-11T04:55:57.493Z,3.63
2022-10-11T04:58:24.036Z,3.42
2022-10-11T05:00:50.473Z,3.78
2022-10-11T05:03:16.837Z,2.95
2022-10-11T05:05:43.168Z,3.35
2022-10-11T05:08:09.660Z,3.17
2022-10-11T05:10:35.964Z,4.20
2022-10-11T05:13:02.350Z,2.42
2022-10-11T05:15:28.647Z,2.85
2022-10-11T05:17:54.985Z,2.80
2022-10-11T05:20:24.105Z,3.33
2022-10-11T05:22:50.441Z,3.13
2022-10-11T05:25:16.788Z,2.80
2022-10-11T05:27:43.434Z,3.30
2022-10-11T05:30:10.604Z,4.13
2022-10-11T05:32:36.981Z,2.50
2022-10-11T05:35:03.399Z,3.10
2022-10-11T05:37:32.453Z,4.60
2022-10-11T05:39:59.858Z,2.75
2022-10-11T05:42:26.214Z,3.25
2022-10-11T05:44:52.639Z,2.58
2022-10-11T05:47:18.964Z,2.97
2022-10-11T05:49:45.724Z,3.20
2022-10-11T05:52:19.713Z,2.72
2022-10-11T05:54:46.053Z,3.25
2022-10-11T05:57:12.320Z,2.60
2022-10-11T05:59:38.807Z,2.47
2022-10-11T06:02:06.255Z,3.15
2022-10-11T06:04:36.417Z,3.08
2022-10-11T06:07:03.836Z,2.17
2022-10-11T06:09:30.401Z,3.15
2022-10-11T06:11:57.576Z,2.65
2022-10-11T06:14:24.071Z,2.47
2022-10-11T06:16:50.382Z,2.60
2022-10-11T06:19:16.897Z,2.50
2022-10-11T06:21:43.442Z,2.70
2022-10-11T06:24:10.061Z,3.13
2022-10-11T06:26:36.695Z,2.40
2022-10-11T06:29:03.827Z,2.75
2022-10-11T06:31:30.556Z,3.17
2022-10-11T06:33:58.625Z,2.70
2022-10-11T06:36:25.962Z,2.85
2022-10-11T06:38:53.652Z,3.55
2022-10-11T06:41:25.764Z,2.20
2022-10-11T06:43:52.427Z,2.88
2022-10-11T06:46:20.983Z,2.88
2022-10-11T06:48:48.826Z,3.22
2022-10-11T06:51:19.344Z,2.85
2022-10-11T06:53:51.030Z,2.58
2022-10-11T06:56:18.032Z,3.58
2022-10-11T06:58:45.513Z,2.60
2022-10-11T07:01:14.034Z,2.92
2022-10-11T07:03:41.145Z,2.50
2022-10-11T07:06:13.532Z,3.03
2022-10-11T07:08:42.802Z,2.58
2022-10-11T07:13:41.202Z,2.28
2022-10-11T07:16:12.160Z,2.47
2022-10-11T07:18:39.566Z,3.53
2022-10-11T07:21:08.681Z,2.92
2022-10-11T07:23:35.302Z,2.75
2022-10-11T07:26:05.592Z,3.50
2022-10-11T07:28:35.853Z,3.17
2022-10-11T07:31:14.783Z,3.10
2022-10-11T07:33:41.795Z,2.85
2022-10-11T07:36:09.360Z,3.22
2022-10-11T07:38:46.923Z,2.88
2022-10-11T07:41:13.828Z,3.67
2022-10-11T07:43:40.501Z,2.35
2022-10-11T07:46:07.430Z,2.40
2022-10-11T07:48:36.402Z,2.17
2022-10-11T07:51:18.249Z,2.15
2022-10-11T07:53:50.425Z,2.17
2022-10-11T07:56:19.597Z,3.65
2022-10-11T07:58:59.753Z,2.55
2022-10-11T08:01:27.799Z,2.75
2022-10-11T08:03:54.477Z,2.35
2022-10-11T08:06:23.215Z,2.78
2022-10-11T08:08:49.808Z,2.45
2022-10-11T08:11:29.823Z,2.40
2022-10-11T08:13:58.357Z,2.70
2022-10-11T08:16:25.140Z,3.92
2022-10-11T08:18:51.616Z,2.45
2022-10-11T08:21:18.914Z,4.90
2022-10-11T08:23:45.415Z,2.70
2022-10-11T08:26:12.313Z,3.28
2022-10-11T08:28:38.822Z,2.60
2022-10-11T08:31:06.038Z,3.03
2022-10-11T08:33:32.607Z,2.38
2022-10-11T08:35:58.969Z,2.75
2022-10-11T08:38:25.265Z,2.30
2022-10-11T08:40:56.706Z,4.75
2022-10-11T08:44:01.349Z,3.03
2022-10-11T08:46:31.866Z,2.50
2022-10-11T08:49:00.505Z,2.92
2022-10-11T08:51:46.836Z,3.28
2022-10-11T08:54:37.800Z,2.90
2022-10-11T08:57:06.428Z,2.40
2022-10-11T08:59:46.497Z,2.20
2022-10-11T09:03:06.293Z,2.42
2022-10-11T09:05:36.624Z,2.10
2022-10-11T09:08:15.054Z,2.72
2022-10-11T09:11:06.513Z,2.55
2022-10-11T09:13:52.388Z,3.15
2022-10-11T09:16:28.515Z,2.60
2022-10-11T09:19:13.372Z,3.53
2022-10-11T09:21:59.815Z,2.35
2022-10-11T09:24:32.646Z,2.60
2022-10-11T09:27:10.741Z,2.85
2022-10-11T09:29:53.460Z,3.42
2022-10-11T09:32:27.548Z,3.42
2022-10-11T09:35:01.359Z,2.88
2022-10-11T09:37:35.409Z,2.72
2022-10-11T09:40:07.042Z,3.63
2022-10-11T09:42:33.451Z,2.58
2022-10-11T09:45:01.781Z,2.75
2022-10-11T09:47:32.830Z,2.95
2022-10-11T09:50:03.261Z,6.05
2022-10-11T09:52:30.307Z,2.97
2022-10-11T09:55:00.341Z,3.15
2022-10-11T09:57:30.291Z,3.13
2022-10-11T10:00:19.790Z,7.35
2022-10-11T10:02:57.946Z,2.70
2022-10-11T10:05:27.072Z,3.05
2022-10-11T10:08:04.291Z,2.72
2022-10-11T10:10:43.981Z,2.83
2022-10-11T10:13:27.307Z,3.10
2022-10-11T10:15:58.523Z,3.15
2022-10-11T10:18:40.546Z,3.15
2022-10-11T10:21:12.688Z,2.70
2022-10-11T10:23:39.295Z,2.90
2022-10-11T10:26:16.311Z,3.13
2022-10-11T10:29:09.113Z,2.97
2022-10-11T10:32:02.010Z,2.80
2022-10-11T10:34:38.799Z,3.20
2022-10-11T10:37:15.509Z,3.03
2022-10-11T10:39:48.621Z,3.25
2022-10-11T10:42:18.067Z,3.88
2022-10-11T10:44:50.962Z,3.25
2022-10-11T10:47:39.088Z,3.40
2022-10-11T10:52:52.670Z,2.25
2022-10-11T10:55:40.377Z,3.22
2022-10-11T10:58:21.521Z,5.75
2022-10-11T11:00:51.820Z,2.75
2022-10-11T11:03:35.170Z,2.85
2022-10-11T11:06:12.929Z,2.80
2022-10-11T11:08:54.476Z,2.90
2022-10-11T11:11:39.334Z,2.83
2022-10-11T11:14:43.941Z,2.78
2022-10-11T11:17:44.378Z,2.58
2022-10-11T11:20:52.631Z,3.50
2022-10-11T11:23:46.167Z,2.47
2022-10-11T11:26:27.826Z,2.10
2022-10-11T11:29:06.158Z,2.55
2022-10-11T11:31:41.759Z,2.90
2022-10-11T11:34:21.726Z,3.20
2022-10-11T11:37:14.546Z,1.95
2022-10-11T11:39:54.232Z,2.53
2022-10-11T11:42:46.890Z,2.20
2022-10-11T11:45:36.117Z,1.92
2022-10-11T11:48:08.221Z,2.60
2022-10-11T11:50:45.656Z,2.03
2022-10-11T11:53:21.654Z,2.25
2022-10-11T11:56:01.373Z,2.13
2022-10-11T11:58:45.204Z,2.63
2022-10-11T12:01:35.983Z,1.90
2022-10-11T12:04:09.224Z,2.75
2022-10-11T12:06:52.481Z,2.08
2022-10-11T12:09:27.289Z,2.00
2022-10-11T12:12:01.335Z,2.40
2022-10-11T12:14:28.251Z,2.35
2022-10-11T12:17:16.477Z,2.65
2022-10-11T12:20:14.704Z,2.60
2022-10-11T12:23:02.734Z,1.90
2022-10-11T12:25:34.562Z,2.00
2022-10-11T12:28:22.821Z,2.28
2022-10-11T12:30:52.442Z,2.28
2022-10-11T12:33:32.976Z,2.40
2022-10-11T12:36:05.670Z,2.63
2022-10-11T12:41:08.760Z,2.20
2022-10-11T12:44:11.405Z,2.10
2022-10-11T12:46:59.201Z,4.55
2022-10-11T12:49:42.814Z,1.60
2022-10-11T12:52:36.039Z,2.40
2022-10-11T12:55:43.965Z,3.05
2022-10-11T12:58:46.236Z,2.33
2022-10-11T13:01:21.997Z,1.83
2022-10-11T13:04:06.614Z,2.30
2022-10-11T13:06:46.341Z,2.33
2022-10-11T13:09:28.781Z,2.22
2022-10-11T13:12:08.633Z,2.58
2022-10-11T13:14:41.400Z,2.30
2022-10-11T13:17:08.028Z,2.03
2022-10-11T13:19:36.963Z,2.92
2022-10-11T13:22:15.825Z,1.55
2022-10-11T13:24:42.546Z,1.67
2022-10-11T13:27:21.212Z,1.60
2022-10-11T13:29:49.769Z,2.10
2022-10-11T13:32:26.084Z,3.88
2022-10-11T13:34:57.096Z,1.90
2022-10-11T13:37:26.911Z,1.73
2022-10-11T13:39:55.361Z,1.80
2022-10-11T13:42:29.634Z,2.22
2022-10-11T13:44:56.935Z,2.00
2022-10-11T13:47:30.242Z,2.88
2022-10-11T13:50:15.697Z,1.98
2022-10-11T13:53:02.879Z,1.85
2022-10-11T13:55:47.332Z,2.33
2022-10-11T13:58:19.965Z,2.22
2022-10-11T14:01:02.558Z,2.05
2022-10-11T14:03:45.665Z,2.42
2022-10-11T14:06:12.332Z,1.95
2022-10-11T14:08:41.857Z,2.20
2022-10-11T14:11:12.357Z,2.30
2022-10-11T14:13:40.906Z,1.98
2022-10-11T14:16:09.600Z,2.05
2022-10-11T14:21:33.677Z,2.15
2022-10-11T14:24:06.232Z,2.20
2022-10-11T14:26:41.839Z,1.90
2022-10-11T14:29:15.056Z,2.50
2022-10-11T14:31:42.262Z,2.47
2022-10-11T14:34:20.639Z,2.22
2022-10-11T14:36:51.631Z,2.40
2022-10-11T14:39:20.685Z,2.50
2022-10-11T14:41:47.479Z,2.17
2022-10-11T14:44:14.326Z,2.25
2022-10-11T14:46:41.288Z,2.17
2022-10-11T14:49:19.212Z,2.38
2022-10-11T14:51:47.532Z,2.33
2022-10-11T14:54:15.414Z,1.80
2022-10-11T14:56:42.047Z,2.10
2022-10-11T14:59:14.549Z,2.97
2022-10-11T15:01:41.060Z,2.00
2022-10-11T15:04:07.435Z,2.28
2022-10-11T15:06:36.763Z,2.13
2022-10-11T15:09:05.388Z,2.22
2022-10-11T15:11:31.996Z,2.22
2022-10-11T15:13:58.362Z,1.90
2022-10-11T15:16:26.713Z,2.17
2022-10-11T15:18:53.083Z,2.85
2022-10-11T15:21:21.916Z,1.73
2022-10-11T15:23:48.877Z,2.20
2022-10-11T15:26:18.752Z,1.80
2022-10-11T15:28:46.278Z,2.10
2022-10-11T15:31:13.087Z,1.88
2022-10-11T15:33:42.701Z,1.80
2022-10-11T15:36:13.299Z,2.03
2022-10-11T15:38:43.332Z,1.75
2022-10-11T15:41:12.848Z,2.17
2022-10-11T15:43:42.707Z,2.42
2022-10-11T15:46:13.888Z,2.08
2022-10-11T15:48:43.493Z,2.20
2022-10-11T15:51:12.663Z,1.98
2022-10-11T15:53:41.368Z,2.08
2022-10-11T15:56:12.071Z,1.48
2022-10-11T15:58:42.816Z,1.52
2022-10-11T16:01:17.139Z,1.63
2022-10-11T16:03:43.789Z,1.95
2022-10-11T16:06:11.010Z,2.42
2022-10-11T16:08:38.036Z,2.55
2022-10-11T16:11:06.356Z,1.75
2022-10-11T16:13:33.627Z,2.00
2022-10-11T16:16:02.112Z,2.17
2022-10-11T16:18:34.186Z,2.47
2022-10-11T16:21:05.135Z,1.90
2022-10-11T16:23:31.748Z,1.65
2022-10-11T16:25:59.812Z,2.35
2022-10-11T16:28:26.904Z,1.80
2022-10-11T16:30:53.590Z,2.03
2022-10-11T16:33:20.052Z,1.90
2022-10-11T16:35:46.521Z,1.98
2022-10-11T16:38:12.888Z,2.20
2022-10-11T16:40:40.223Z,2.50
2022-10-11T16:43:07.914Z,2.22
2022-10-11T16:45:35.470Z,2.40
2022-10-11T16:48:02.367Z,2.00
2022-10-11T16:50:29.032Z,2.03
2022-10-11T16:52:55.726Z,2.35
2022-10-11T16:55:22.938Z,2.15
2022-10-11T16:57:49.246Z,2.40
2022-10-11T17:00:16.111Z,2.03
2022-10-11T17:02:42.456Z,2.63
2022-10-11T17:05:08.968Z,2.15
2022-10-11T17:07:35.325Z,2.10
2022-10-11T17:10:01.640Z,2.13
2022-10-11T17:12:28.425Z,2.38
2022-10-11T17:14:54.964Z,3.90
2022-10-11T17:17:21.309Z,2.45
2022-10-11T17:19:47.849Z,2.53
2022-10-11T17:22:17.996Z,2.45
2022-10-11T17:24:44.482Z,2.28
2022-10-11T17:27:10.858Z,1.98
2022-10-11T17:29:37.699Z,2.47
2022-10-11T17:32:04.386Z,2.10
2022-10-11T17:34:30.732Z,2.65
2022-10-11T17:36:57.191Z,2.30
2022-10-11T17:39:24.010Z,2.72
2022-10-11T17:41:50.778Z,2.30
2022-10-11T17:44:18.336Z,3.03
2022-10-11T17:46:45.585Z,2.42
2022-10-11T17:49:12.428Z,2.97
2022-10-11T17:51:39.955Z,2.35
2022-10-11T17:54:06.483Z,2.15
2022-10-11T17:56:39.389Z,2.53
2022-10-11T17:59:13.518Z,2.65
2022-10-11T18:01:53.372Z,2.47
2022-10-11T18:04:21.668Z,2.88
2022-10-11T18:06:48.533Z,3.13
2022-10-11T18:09:17.069Z,3.00
2022-10-11T18:11:44.362Z,2.63
2022-10-11T18:14:11.321Z,2.42
2022-10-11T18:16:38.627Z,2.75
2022-10-11T18:19:14.421Z,2.13
2022-10-11T18:21:41.104Z,2.67
2022-10-11T18:24:21.431Z,2.63
2022-10-11T18:26:47.805Z,2.47
2022-10-11T18:29:21.421Z,2.03
2022-10-11T18:31:47.723Z,2.53
2022-10-11T18:34:22.601Z,2.30
2022-10-11T18:36:48.925Z,2.55
2022-10-11T18:39:15.366Z,3.17
2022-10-11T18:41:44.598Z,2.70
2022-10-11T18:44:14.139Z,2.53
2022-10-11T18:49:09.795Z,3.33
2022-10-11T18:51:39.139Z,2.92
2022-10-11T18:54:07.351Z,2.08
2022-10-11T18:56:35.310Z,2.33
2022-10-11T18:59:02.143Z,1.67
2022-10-11T19:01:38.204Z,2.67
2022-10-11T19:04:06.443Z,2.97
2022-10-11T19:06:40.171Z,2.35
2022-10-11T19:09:10.313Z,2.40
2022-10-11T19:11:37.019Z,2.17
2022-10-11T19:14:13.552Z,2.42
2022-10-11T19:16:46.163Z,2.60
2022-10-11T19:19:13.258Z,2.40
2022-10-11T19:21:40.238Z,2.30
2022-10-11T19:24:06.960Z,2.42
2022-10-11T19:26:36.597Z,2.40
2022-10-11T19:29:06.724Z,3.10
2022-10-11T19:31:38.055Z,2.38
2022-10-11T19:34:04.670Z,2.42
2022-10-11T19:36:36.285Z,3.10
2022-10-11T19:39:04.752Z,2.10
2022-10-11T19:41:32.924Z,2.47
2022-10-11T19:43:59.525Z,2.60
2022-10-11T19:46:44.875Z,2.30
2022-10-11T19:49:17.344Z,2.60
2022-10-11T19:51:43.795Z,2.58
2022-10-11T19:54:13.662Z,2.47
2022-10-11T19:56:40.400Z,2.63
2022-10-11T19:59:06.857Z,2.42
2022-10-11T20:01:37.117Z,2.85
2022-10-11T20:04:06.367Z,2.45
2022-10-11T20:06:38.267Z,1.95
2022-10-11T20:09:27.841Z,2.70
2022-10-11T20:11:51.427Z,2.92
2022-10-11T20:14:17.765Z,2.78
2022-10-11T20:16:44.067Z,2.72
2022-10-11T20:19:10.500Z,2.80
2022-10-11T20:21:36.891Z,3.03
2022-10-11T20:24:04.978Z,3.00
2022-10-11T20:26:31.605Z,2.85
2022-10-11T20:28:58.434Z,2.33
2022-10-11T20:31:31.428Z,2.28
2022-10-11T20:34:01.323Z,2.72
2022-10-11T20:36:29.902Z,2.70
2022-10-11T20:38:57.886Z,2.92
2022-10-11T20:41:31.112Z,3.33
2022-10-11T20:43:59.293Z,3.85
2022-10-11T20:46:30.567Z,2.83
2022-10-11T20:49:01.870Z,2.70
2022-10-11T20:51:31.240Z,3.25
2022-10-11T20:53:58.859Z,2.42
2022-10-11T20:56:25.594Z,3.35
2022-10-11T20:58:53.905Z,2.78
2022-10-11T21:01:22.818Z,3.10
2022-10-11T21:03:50.243Z,2.63
2022-10-11T21:06:16.545Z,2.78
2022-10-11T21:08:42.843Z,2.50
2022-10-11T21:11:09.767Z,3.47
2022-10-11T21:13:36.352Z,3.08
2022-10-11T21:16:08.000Z,2.83
2022-10-11T21:18:34.343Z,3.55
2022-10-11T21:21:13.013Z,2.88
2022-10-11T21:23:40.056Z,3.63
2022-10-11T21:26:08.764Z,2.70
2022-10-11T21:28:35.580Z,3.55
2022-10-11T21:31:10.537Z,2.88
2022-10-11T21:33:37.759Z,3.10
2022-10-11T21:36:18.221Z,2.53
2022-10-11T21:38:48.219Z,3.33
2022-10-11T21:41:17.492Z,3.67
2022-10-11T21:43:43.867Z,3.58
2022-10-11T21:46:20.564Z,2.80
2022-10-11T21:48:47.590Z,2.95
2022-10-11T21:51:21.663Z,2.97
2022-10-11T21:53:48.146Z,3.63
2022-10-11T21:56:14.560Z,3.53
2022-10-11T21:58:40.897Z,2.95
2022-10-11T22:01:07.430Z,2.95
2022-10-11T22:03:33.831Z,3.08
2022-10-11T22:06:04.358Z,2.95
2022-10-11T22:08:30.855Z,3.00
2022-10-11T22:10:59.581Z,4.22
2022-10-11T22:13:28.066Z,3.28
2022-10-11T22:15:56.191Z,3.08
2022-10-11T22:18:23.668Z,3.15
2022-10-11T22:20:50.261Z,2.83
2022-10-11T22:23:18.823Z,3.13
2022-10-11T22:25:46.067Z,3.75
2022-10-11T22:28:12.577Z,3.22
2022-10-11T22:30:38.974Z,2.90
2022-10-11T22:33:05.278Z,3.20
2022-10-11T22:35:37.228Z,3.03
2022-10-11T22:38:06.001Z,3.10
2022-10-11T22:40:32.518Z,3.65
2022-10-11T22:42:58.922Z,3.22
2022-10-11T22:45:25.367Z,3.05
2022-10-11T22:47:51.667Z,3.92
2022-10-11T22:50:18.039Z,3.78
2022-10-11T22:52:44.443Z,3.42
2022-10-11T22:55:10.750Z,3.95
2022-10-11T22:57:37.499Z,3.60
2022-10-11T23:00:04.862Z,4.00
2022-10-11T23:02:31.154Z,3.75
2022-10-11T23:04:58.247Z,3.42
2022-10-11T23:07:24.572Z,4.18
2022-10-11T23:09:50.889Z,3.83
2022-10-11T23:12:17.201Z,4.00
2022-10-11T23:14:43.540Z,4.20
2022-10-11T23:17:09.827Z,3.80
2022-10-11T23:19:36.970Z,4.20
2022-10-11T23:22:03.780Z,3.67
2022-10-11T23:24:30.061Z,3.58
2022-10-11T23:26:56.343Z,4.18
2022-10-11T23:29:22.624Z,3.92
2022-10-11T23:31:50.438Z,3.53
2022-10-11T23:34:16.913Z,3.47
2022-10-11T23:36:43.227Z,3.47
2022-10-11T23:39:10.449Z,4.00
2022-10-11T23:41:36.769Z,3.28
2022-10-11T23:44:03.209Z,3.70
2022-10-11T23:46:29.522Z,3.20
2022-10-11T23:48:56.059Z,3.30
2022-10-11T23:51:23.153Z,4.40
2022-10-11T23:53:49.497Z,2.97
2022-10-11T23:56:15.759Z,4.35
2022-10-11T23:58:42.264Z,3.63
